sensor_id;sensor_type;location;lat;lon;timestamp;P1;durP1;ratioP1;P2;durP2;ratioP2
13335;SDS011;6737;51.480;11.962;2023-07-20T00:01:25;4.75;;;3.75;;
13335;SDS011;6737;51.480;11.962;2023-07-20T00:03:51;9.03;;;4.00;;
13335;SDS011;6737;51.480;11.962;2023-07-20T00:06:23;6.73;;;3.80;;
13335;SDS011;6737;51.480;11.962;2023-07-20T00:08:50;6.22;;;3.70;;
13335;SDS011;6737;51.480;11.962;2023-07-20T00:11:17;7.35;;;3.88;;
13335;SDS011;6737;51.480;11.962;2023-07-20T00:13:42;4.07;;;3.63;;
13335;SDS011;6737;51.480;11.962;2023-07-20T00:16:09;8.53;;;3.93;;
13335;SDS011;6737;51.480;11.962;2023-07-20T00:18:35;5.32;;;3.72;;
13335;SDS011;6737;51.480;11.962;2023-07-20T00:21:00;5.30;;;3.70;;
13335;SDS011;6737;51.480;11.962;2023-07-20T00:23:27;5.57;;;3.67;;
13335;SDS011;6737;51.480;11.962;2023-07-20T00:25:53;4.28;;;3.88;;
13335;SDS011;6737;51.480;11.962;2023-07-20T00:28:19;5.73;;;3.97;;
13335;SDS011;6737;51.480;11.962;2023-07-20T00:30:45;5.15;;;3.97;;
13335;SDS011;6737;51.480;11.962;2023-07-20T00:33:11;4.50;;;3.87;;
13335;SDS011;6737;51.480;11.962;2023-07-20T00:35:38;5.47;;;4.07;;
13335;SDS011;6737;51.480;11.962;2023-07-20T00:38:04;5.73;;;3.50;;
13335;SDS011;6737;51.480;11.962;2023-07-20T00:40:39;6.43;;;3.73;;
13335;SDS011;6737;51.480;11.962;2023-07-20T00:43:06;5.53;;;3.75;;
13335;SDS011;6737;51.480;11.962;2023-07-20T00:45:33;5.00;;;3.88;;
13335;SDS011;6737;51.480;11.962;2023-07-20T00:48:01;4.60;;;3.53;;
13335;SDS011;6737;51.480;11.962;2023-07-20T00:50:29;9.60;;;3.92;;
13335;SDS011;6737;51.480;11.962;2023-07-20T00:52:56;3.97;;;3.60;;
13335;SDS011;6737;51.480;11.962;2023-07-20T00:55:22;5.47;;;3.67;;
13335;SDS011;6737;51.480;11.962;2023-07-20T00:57:49;5.28;;;4.00;;
13335;SDS011;6737;51.480;11.962;2023-07-20T01:00:16;6.77;;;4.20;;
13335;SDS011;6737;51.480;11.962;2023-07-20T01:02:43;6.00;;;4.30;;
13335;SDS011;6737;51.480;11.962;2023-07-20T01:05:09;6.57;;;4.00;;
13335;SDS011;6737;51.480;11.962;2023-07-20T01:07:43;7.13;;;4.20;;
13335;SDS011;6737;51.480;11.962;2023-07-20T01:10:22;6.77;;;4.20;;
13335;SDS011;6737;51.480;11.962;2023-07-20T01:13:01;8.88;;;4.50;;
13335;SDS011;6737;51.480;11.962;2023-07-20T01:15:28;4.38;;;3.53;;
13335;SDS011;6737;51.480;11.962;2023-07-20T01:17:54;4.82;;;3.65;;
13335;SDS011;6737;51.480;11.962;2023-07-20T01:20:20;9.75;;;4.20;;
13335;SDS011;6737;51.480;11.962;2023-07-20T01:30:45;6.20;;;4.63;;
13335;SDS011;6737;51.480;11.962;2023-07-20T01:33:24;135.93;;;8.48;;
13335;SDS011;6737;51.480;11.962;2023-07-20T01:35:54;6.53;;;4.22;;
13335;SDS011;6737;51.480;11.962;2023-07-20T01:38:23;6.45;;;4.55;;
13335;SDS011;6737;51.480;11.962;2023-07-20T01:40:49;5.70;;;4.55;;
13335;SDS011;6737;51.480;11.962;2023-07-20T01:43:17;6.72;;;4.50;;
13335;SDS011;6737;51.480;11.962;2023-07-20T01:45:43;7.47;;;4.50;;
13335;SDS011;6737;51.480;11.962;2023-07-20T01:48:09;8.20;;;4.78;;
13335;SDS011;6737;51.480;11.962;2023-07-20T01:50:36;5.95;;;4.53;;
13335;SDS011;6737;51.480;11.962;2023-07-20T01:53:01;5.63;;;4.20;;
13335;SDS011;6737;51.480;11.962;2023-07-20T01:55:27;5.70;;;4.50;;
13335;SDS011;6737;51.480;11.962;2023-07-20T01:57:54;6.00;;;4.17;;
13335;SDS011;6737;51.480;11.962;2023-07-20T02:00:21;7.40;;;4.93;;
13335;SDS011;6737;51.480;11.962;2023-07-20T02:02:49;9.32;;;4.90;;
13335;SDS011;6737;51.480;11.962;2023-07-20T02:05:15;5.13;;;4.18;;
13335;SDS011;6737;51.480;11.962;2023-07-20T02:07:42;6.18;;;4.03;;
13335;SDS011;6737;51.480;11.962;2023-07-20T02:10:08;5.07;;;4.13;;
13335;SDS011;6737;51.480;11.962;2023-07-20T02:12:34;6.28;;;4.22;;
13335;SDS011;6737;51.480;11.962;2023-07-20T02:15:01;6.18;;;4.72;;
13335;SDS011;6737;51.480;11.962;2023-07-20T02:17:27;7.45;;;4.43;;
13335;SDS011;6737;51.480;11.962;2023-07-20T02:19:54;6.78;;;4.60;;
13335;SDS011;6737;51.480;11.962;2023-07-20T02:22:21;6.18;;;4.20;;
13335;SDS011;6737;51.480;11.962;2023-07-20T02:24:47;5.05;;;4.35;;
13335;SDS011;6737;51.480;11.962;2023-07-20T02:27:13;5.85;;;4.45;;
13335;SDS011;6737;51.480;11.962;2023-07-20T02:29:40;6.32;;;4.35;;
13335;SDS011;6737;51.480;11.962;2023-07-20T02:32:07;7.35;;;4.50;;
13335;SDS011;6737;51.480;11.962;2023-07-20T02:34:35;6.70;;;4.25;;
13335;SDS011;6737;51.480;11.962;2023-07-20T02:37:01;5.10;;;4.20;;
13335;SDS011;6737;51.480;11.962;2023-07-20T02:39:27;6.60;;;4.80;;
13335;SDS011;6737;51.480;11.962;2023-07-20T02:41:53;4.65;;;4.05;;
13335;SDS011;6737;51.480;11.962;2023-07-20T02:44:20;7.45;;;4.40;;
13335;SDS011;6737;51.480;11.962;2023-07-20T02:46:46;7.60;;;4.88;;
13335;SDS011;6737;51.480;11.962;2023-07-20T02:49:12;7.18;;;4.60;;
13335;SDS011;6737;51.480;11.962;2023-07-20T02:51:37;10.00;;;4.90;;
13335;SDS011;6737;51.480;11.962;2023-07-20T02:54:03;6.72;;;4.78;;
13335;SDS011;6737;51.480;11.962;2023-07-20T02:56:29;8.20;;;5.15;;
13335;SDS011;6737;51.480;11.962;2023-07-20T02:58:55;7.47;;;4.68;;
13335;SDS011;6737;51.480;11.962;2023-07-20T03:01:21;7.28;;;5.00;;
13335;SDS011;6737;51.480;11.962;2023-07-20T03:03:46;6.20;;;4.73;;
13335;SDS011;6737;51.480;11.962;2023-07-20T03:06:15;9.03;;;5.10;;
13335;SDS011;6737;51.480;11.962;2023-07-20T03:08:42;5.47;;;4.83;;
13335;SDS011;6737;51.480;11.962;2023-07-20T03:11:13;10.05;;;5.35;;
13335;SDS011;6737;51.480;11.962;2023-07-20T03:13:42;7.32;;;4.90;;
13335;SDS011;6737;51.480;11.962;2023-07-20T03:16:09;6.30;;;4.97;;
13335;SDS011;6737;51.480;11.962;2023-07-20T03:18:37;7.60;;;5.18;;
13335;SDS011;6737;51.480;11.962;2023-07-20T03:21:04;7.88;;;4.63;;
13335;SDS011;6737;51.480;11.962;2023-07-20T03:23:31;9.38;;;4.80;;
13335;SDS011;6737;51.480;11.962;2023-07-20T03:25:56;10.13;;;5.40;;
13335;SDS011;6737;51.480;11.962;2023-07-20T03:28:22;7.35;;;5.25;;
13335;SDS011;6737;51.480;11.962;2023-07-20T03:30:54;9.50;;;5.47;;
13335;SDS011;6737;51.480;11.962;2023-07-20T03:33:24;11.70;;;5.27;;
13335;SDS011;6737;51.480;11.962;2023-07-20T03:35:51;8.25;;;5.72;;
13335;SDS011;6737;51.480;11.962;2023-07-20T03:38:17;7.20;;;5.40;;
13335;SDS011;6737;51.480;11.962;2023-07-20T03:40:53;9.88;;;5.78;;
13335;SDS011;6737;51.480;11.962;2023-07-20T03:43:20;9.68;;;5.20;;
13335;SDS011;6737;51.480;11.962;2023-07-20T03:45:49;10.38;;;5.60;;
13335;SDS011;6737;51.480;11.962;2023-07-20T03:48:16;8.52;;;5.60;;
13335;SDS011;6737;51.480;11.962;2023-07-20T03:50:47;9.88;;;5.50;;
13335;SDS011;6737;51.480;11.962;2023-07-20T03:53:14;9.93;;;6.15;;
13335;SDS011;6737;51.480;11.962;2023-07-20T03:55:41;8.73;;;5.70;;
13335;SDS011;6737;51.480;11.962;2023-07-20T03:58:11;11.55;;;5.85;;
13335;SDS011;6737;51.480;11.962;2023-07-20T04:00:37;8.32;;;5.90;;
13335;SDS011;6737;51.480;11.962;2023-07-20T04:03:02;7.47;;;6.18;;
13335;SDS011;6737;51.480;11.962;2023-07-20T04:05:28;7.93;;;6.00;;
13335;SDS011;6737;51.480;11.962;2023-07-20T04:07:55;7.63;;;5.80;;
13335;SDS011;6737;51.480;11.962;2023-07-20T04:10:21;7.57;;;5.90;;
13335;SDS011;6737;51.480;11.962;2023-07-20T04:12:46;10.25;;;5.38;;
13335;SDS011;6737;51.480;11.962;2023-07-20T04:15:12;8.48;;;6.47;;
13335;SDS011;6737;51.480;11.962;2023-07-20T04:17:39;8.27;;;6.05;;
13335;SDS011;6737;51.480;11.962;2023-07-20T04:20:09;7.37;;;6.03;;
13335;SDS011;6737;51.480;11.962;2023-07-20T04:22:35;12.25;;;6.18;;
13335;SDS011;6737;51.480;11.962;2023-07-20T04:25:02;9.52;;;5.88;;
13335;SDS011;6737;51.480;11.962;2023-07-20T04:27:29;9.75;;;5.80;;
13335;SDS011;6737;51.480;11.962;2023-07-20T04:39:37;13.03;;;7.57;;
13335;SDS011;6737;51.480;11.962;2023-07-20T04:42:03;9.43;;;6.57;;
13335;SDS011;6737;51.480;11.962;2023-07-20T04:44:29;11.02;;;6.80;;
13335;SDS011;6737;51.480;11.962;2023-07-20T04:46:55;6.68;;;5.95;;
13335;SDS011;6737;51.480;11.962;2023-07-20T04:49:21;12.75;;;6.20;;
13335;SDS011;6737;51.480;11.962;2023-07-20T04:51:47;10.15;;;6.53;;
13335;SDS011;6737;51.480;11.962;2023-07-20T04:54:12;12.60;;;6.35;;
13335;SDS011;6737;51.480;11.962;2023-07-20T04:56:38;12.40;;;7.53;;
13335;SDS011;6737;51.480;11.962;2023-07-20T04:59:04;13.18;;;7.15;;
13335;SDS011;6737;51.480;11.962;2023-07-20T05:01:30;7.15;;;6.43;;
13335;SDS011;6737;51.480;11.962;2023-07-20T05:03:56;14.57;;;6.70;;
13335;SDS011;6737;51.480;11.962;2023-07-20T05:06:21;10.48;;;6.07;;
13335;SDS011;6737;51.480;11.962;2023-07-20T05:08:47;13.63;;;6.60;;
13335;SDS011;6737;51.480;11.962;2023-07-20T05:11:13;10.10;;;6.80;;
13335;SDS011;6737;51.480;11.962;2023-07-20T05:13:39;10.45;;;6.60;;
13335;SDS011;6737;51.480;11.962;2023-07-20T05:16:05;9.80;;;6.28;;
13335;SDS011;6737;51.480;11.962;2023-07-20T05:18:31;10.48;;;6.32;;
13335;SDS011;6737;51.480;11.962;2023-07-20T05:20:57;7.90;;;5.85;;
13335;SDS011;6737;51.480;11.962;2023-07-20T05:23:23;15.77;;;6.50;;
13335;SDS011;6737;51.480;11.962;2023-07-20T05:25:55;11.13;;;6.40;;
13335;SDS011;6737;51.480;11.962;2023-07-20T05:28:22;9.02;;;6.40;;
13335;SDS011;6737;51.480;11.962;2023-07-20T05:30:52;13.48;;;6.63;;
13335;SDS011;6737;51.480;11.962;2023-07-20T05:33:18;10.73;;;6.50;;
13335;SDS011;6737;51.480;11.962;2023-07-20T05:35:45;9.18;;;6.65;;
13335;SDS011;6737;51.480;11.962;2023-07-20T05:38:11;10.02;;;6.45;;
13335;SDS011;6737;51.480;11.962;2023-07-20T05:40:37;9.88;;;6.50;;
13335;SDS011;6737;51.480;11.962;2023-07-20T05:43:06;12.63;;;6.72;;
13335;SDS011;6737;51.480;11.962;2023-07-20T05:45:32;11.00;;;6.20;;
13335;SDS011;6737;51.480;11.962;2023-07-20T05:47:58;10.38;;;6.47;;
13335;SDS011;6737;51.480;11.962;2023-07-20T05:50:24;11.55;;;5.85;;
13335;SDS011;6737;51.480;11.962;2023-07-20T05:52:52;9.25;;;5.90;;
13335;SDS011;6737;51.480;11.962;2023-07-20T05:55:18;8.32;;;5.60;;
13335;SDS011;6737;51.480;11.962;2023-07-20T05:57:44;9.75;;;5.55;;
13335;SDS011;6737;51.480;11.962;2023-07-20T06:00:10;12.18;;;5.88;;
13335;SDS011;6737;51.480;11.962;2023-07-20T06:02:38;7.93;;;5.82;;
13335;SDS011;6737;51.480;11.962;2023-07-20T06:05:05;9.18;;;5.80;;
13335;SDS011;6737;51.480;11.962;2023-07-20T06:07:34;9.07;;;6.10;;
13335;SDS011;6737;51.480;11.962;2023-07-20T06:10:01;9.23;;;6.00;;
13335;SDS011;6737;51.480;11.962;2023-07-20T06:12:27;10.00;;;6.10;;
13335;SDS011;6737;51.480;11.962;2023-07-20T06:14:53;12.55;;;6.50;;
13335;SDS011;6737;51.480;11.962;2023-07-20T06:17:19;9.98;;;5.93;;
13335;SDS011;6737;51.480;11.962;2023-07-20T06:19:45;8.75;;;5.97;;
13335;SDS011;6737;51.480;11.962;2023-07-20T06:22:11;10.48;;;6.15;;
13335;SDS011;6737;51.480;11.962;2023-07-20T06:24:36;9.57;;;5.47;;
13335;SDS011;6737;51.480;11.962;2023-07-20T06:27:02;9.35;;;5.43;;
13335;SDS011;6737;51.480;11.962;2023-07-20T06:29:31;8.25;;;5.57;;
13335;SDS011;6737;51.480;11.962;2023-07-20T06:31:56;14.25;;;6.05;;
13335;SDS011;6737;51.480;11.962;2023-07-20T06:34:22;10.85;;;5.97;;
13335;SDS011;6737;51.480;11.962;2023-07-20T06:36:48;9.02;;;5.60;;
13335;SDS011;6737;51.480;11.962;2023-07-20T06:39:14;8.93;;;5.30;;
13335;SDS011;6737;51.480;11.962;2023-07-20T06:41:40;10.10;;;5.35;;
13335;SDS011;6737;51.480;11.962;2023-07-20T06:44:05;8.77;;;5.80;;
13335;SDS011;6737;51.480;11.962;2023-07-20T06:46:33;6.68;;;5.40;;
13335;SDS011;6737;51.480;11.962;2023-07-20T06:48:59;7.22;;;4.90;;
13335;SDS011;6737;51.480;11.962;2023-07-20T06:51:24;8.05;;;4.90;;
13335;SDS011;6737;51.480;11.962;2023-07-20T06:53:50;10.07;;;5.20;;
13335;SDS011;6737;51.480;11.962;2023-07-20T06:56:16;6.45;;;5.30;;
13335;SDS011;6737;51.480;11.962;2023-07-20T06:58:42;11.73;;;5.82;;
13335;SDS011;6737;51.480;11.962;2023-07-20T07:01:13;10.57;;;5.80;;
13335;SDS011;6737;51.480;11.962;2023-07-20T07:03:49;9.02;;;6.60;;
13335;SDS011;6737;51.480;11.962;2023-07-20T07:06:18;9.38;;;6.28;;
13335;SDS011;6737;51.480;11.962;2023-07-20T07:08:46;9.40;;;6.45;;
13335;SDS011;6737;51.480;11.962;2023-07-20T07:11:11;11.80;;;6.45;;
13335;SDS011;6737;51.480;11.962;2023-07-20T07:13:37;8.07;;;6.00;;
13335;SDS011;6737;51.480;11.962;2023-07-20T07:16:03;9.00;;;5.72;;
13335;SDS011;6737;51.480;11.962;2023-07-20T07:18:29;7.00;;;6.30;;
13335;SDS011;6737;51.480;11.962;2023-07-20T07:20:55;9.48;;;6.53;;
13335;SDS011;6737;51.480;11.962;2023-07-20T07:23:21;8.65;;;5.95;;
13335;SDS011;6737;51.480;11.962;2023-07-20T07:25:47;7.15;;;5.65;;
13335;SDS011;6737;51.480;11.962;2023-07-20T07:28:13;9.23;;;6.00;;
13335;SDS011;6737;51.480;11.962;2023-07-20T07:30:39;9.18;;;6.40;;
13335;SDS011;6737;51.480;11.962;2023-07-20T07:33:05;6.85;;;5.82;;
13335;SDS011;6737;51.480;11.962;2023-07-20T07:35:30;10.10;;;5.88;;
13335;SDS011;6737;51.480;11.962;2023-07-20T07:37:56;7.63;;;5.72;;
13335;SDS011;6737;51.480;11.962;2023-07-20T07:40:22;7.38;;;5.95;;
13335;SDS011;6737;51.480;11.962;2023-07-20T07:42:47;6.50;;;5.88;;
13335;SDS011;6737;51.480;11.962;2023-07-20T07:45:13;7.28;;;6.25;;
13335;SDS011;6737;51.480;11.962;2023-07-20T07:47:39;8.93;;;5.93;;
13335;SDS011;6737;51.480;11.962;2023-07-20T07:50:05;7.03;;;5.85;;
13335;SDS011;6737;51.480;11.962;2023-07-20T07:52:31;8.85;;;6.70;;
13335;SDS011;6737;51.480;11.962;2023-07-20T07:54:57;6.78;;;6.13;;
13335;SDS011;6737;51.480;11.962;2023-07-20T07:57:23;7.38;;;6.68;;
13335;SDS011;6737;51.480;11.962;2023-07-20T07:59:49;7.57;;;6.35;;
13335;SDS011;6737;51.480;11.962;2023-07-20T08:02:15;7.38;;;6.03;;
13335;SDS011;6737;51.480;11.962;2023-07-20T08:04:41;8.43;;;6.90;;
13335;SDS011;6737;51.480;11.962;2023-07-20T08:07:06;9.65;;;7.60;;
13335;SDS011;6737;51.480;11.962;2023-07-20T08:09:32;8.93;;;7.50;;
13335;SDS011;6737;51.480;11.962;2023-07-20T08:11:58;8.30;;;6.75;;
13335;SDS011;6737;51.480;11.962;2023-07-20T08:14:25;8.48;;;7.10;;
13335;SDS011;6737;51.480;11.962;2023-07-20T08:16:50;7.90;;;7.10;;
13335;SDS011;6737;51.480;11.962;2023-07-20T08:19:16;9.45;;;7.18;;
13335;SDS011;6737;51.480;11.962;2023-07-20T08:21:42;9.10;;;7.35;;
13335;SDS011;6737;51.480;11.962;2023-07-20T08:24:08;9.07;;;8.20;;
13335;SDS011;6737;51.480;11.962;2023-07-20T08:26:34;9.13;;;7.50;;
13335;SDS011;6737;51.480;11.962;2023-07-20T08:29:00;8.57;;;7.85;;
13335;SDS011;6737;51.480;11.962;2023-07-20T08:31:25;10.82;;;7.30;;
13335;SDS011;6737;51.480;11.962;2023-07-20T08:33:53;7.15;;;6.40;;
13335;SDS011;6737;51.480;11.962;2023-07-20T08:36:19;6.28;;;5.68;;
13335;SDS011;6737;51.480;11.962;2023-07-20T08:38:45;6.75;;;5.30;;
13335;SDS011;6737;51.480;11.962;2023-07-20T08:41:11;5.82;;;5.22;;
13335;SDS011;6737;51.480;11.962;2023-07-20T08:43:37;5.50;;;4.90;;
13335;SDS011;6737;51.480;11.962;2023-07-20T08:46:03;6.25;;;4.75;;
13335;SDS011;6737;51.480;11.962;2023-07-20T08:48:30;6.13;;;5.25;;
13335;SDS011;6737;51.480;11.962;2023-07-20T08:50:56;7.45;;;5.20;;
13335;SDS011;6737;51.480;11.962;2023-07-20T08:53:25;5.95;;;4.63;;
13335;SDS011;6737;51.480;11.962;2023-07-20T08:55:53;5.72;;;5.10;;
13335;SDS011;6737;51.480;11.962;2023-07-20T08:58:20;9.27;;;7.00;;
13335;SDS011;6737;51.480;11.962;2023-07-20T09:00:45;10.30;;;7.95;;
13335;SDS011;6737;51.480;11.962;2023-07-20T09:03:17;7.53;;;6.88;;
13335;SDS011;6737;51.480;11.962;2023-07-20T09:05:44;10.55;;;7.68;;
13335;SDS011;6737;51.480;11.962;2023-07-20T09:08:10;8.63;;;7.80;;
13335;SDS011;6737;51.480;11.962;2023-07-20T09:10:36;12.77;;;8.10;;
13335;SDS011;6737;51.480;11.962;2023-07-20T09:13:02;9.25;;;7.95;;
13335;SDS011;6737;51.480;11.962;2023-07-20T09:15:29;8.75;;;6.63;;
13335;SDS011;6737;51.480;11.962;2023-07-20T09:17:55;7.18;;;6.10;;
13335;SDS011;6737;51.480;11.962;2023-07-20T09:20:21;10.45;;;6.82;;
13335;SDS011;6737;51.480;11.962;2023-07-20T09:22:47;7.32;;;6.25;;
13335;SDS011;6737;51.480;11.962;2023-07-20T09:25:13;7.47;;;5.45;;
13335;SDS011;6737;51.480;11.962;2023-07-20T09:27:41;7.90;;;6.57;;
13335;SDS011;6737;51.480;11.962;2023-07-20T09:30:08;8.13;;;6.82;;
13335;SDS011;6737;51.480;11.962;2023-07-20T09:32:39;10.10;;;7.25;;
13335;SDS011;6737;51.480;11.962;2023-07-20T09:35:06;12.90;;;8.60;;
13335;SDS011;6737;51.480;11.962;2023-07-20T09:37:38;12.98;;;9.10;;
13335;SDS011;6737;51.480;11.962;2023-07-20T09:40:04;9.43;;;8.55;;
13335;SDS011;6737;51.480;11.962;2023-07-20T09:42:34;9.75;;;8.00;;
13335;SDS011;6737;51.480;11.962;2023-07-20T09:45:02;9.18;;;8.32;;
13335;SDS011;6737;51.480;11.962;2023-07-20T09:47:29;8.20;;;7.32;;
13335;SDS011;6737;51.480;11.962;2023-07-20T09:49:58;8.43;;;7.55;;
13335;SDS011;6737;51.480;11.962;2023-07-20T09:52:25;8.00;;;6.50;;
13335;SDS011;6737;51.480;11.962;2023-07-20T09:54:52;8.32;;;5.78;;
13335;SDS011;6737;51.480;11.962;2023-07-20T09:57:19;8.15;;;6.35;;
13335;SDS011;6737;51.480;11.962;2023-07-20T09:59:47;7.20;;;6.30;;
13335;SDS011;6737;51.480;11.962;2023-07-20T10:02:16;8.02;;;6.70;;
13335;SDS011;6737;51.480;11.962;2023-07-20T10:04:47;11.63;;;8.10;;
13335;SDS011;6737;51.480;11.962;2023-07-20T10:07:17;10.35;;;8.52;;
13335;SDS011;6737;51.480;11.962;2023-07-20T10:09:48;9.90;;;8.90;;
13335;SDS011;6737;51.480;11.962;2023-07-20T10:12:17;9.88;;;7.63;;
13335;SDS011;6737;51.480;11.962;2023-07-20T10:15:10;8.32;;;7.63;;
13335;SDS011;6737;51.480;11.962;2023-07-20T10:17:37;10.17;;;7.87;;
13335;SDS011;6737;51.480;11.962;2023-07-20T10:20:14;7.20;;;6.50;;
13335;SDS011;6737;51.480;11.962;2023-07-20T10:22:44;6.68;;;6.07;;
13335;SDS011;6737;51.480;11.962;2023-07-20T10:25:13;8.00;;;6.25;;
13335;SDS011;6737;51.480;11.962;2023-07-20T10:27:40;7.75;;;6.75;;
13335;SDS011;6737;51.480;11.962;2023-07-20T10:30:06;7.40;;;6.50;;
13335;SDS011;6737;51.480;11.962;2023-07-20T10:32:32;7.30;;;6.60;;
13335;SDS011;6737;51.480;11.962;2023-07-20T10:34:59;7.57;;;6.88;;
13335;SDS011;6737;51.480;11.962;2023-07-20T10:40:29;7.55;;;6.75;;
13335;SDS011;6737;51.480;11.962;2023-07-20T10:43:00;7.43;;;6.70;;
13335;SDS011;6737;51.480;11.962;2023-07-20T10:45:35;7.95;;;7.32;;
13335;SDS011;6737;51.480;11.962;2023-07-20T10:48:04;9.00;;;8.15;;
13335;SDS011;6737;51.480;11.962;2023-07-20T10:50:32;8.68;;;7.78;;
13335;SDS011;6737;51.480;11.962;2023-07-20T10:53:15;9.93;;;7.93;;
13335;SDS011;6737;51.480;11.962;2023-07-20T10:55:43;8.55;;;7.07;;
13335;SDS011;6737;51.480;11.962;2023-07-20T10:58:14;8.88;;;8.07;;
13335;SDS011;6737;51.480;11.962;2023-07-20T11:00:56;8.93;;;8.02;;
13335;SDS011;6737;51.480;11.962;2023-07-20T11:03:32;7.18;;;6.47;;
13335;SDS011;6737;51.480;11.962;2023-07-20T11:05:59;5.85;;;5.35;;
13335;SDS011;6737;51.480;11.962;2023-07-20T11:08:45;5.75;;;5.15;;
13335;SDS011;6737;51.480;11.962;2023-07-20T11:14:24;4.05;;;3.25;;
13335;SDS011;6737;51.480;11.962;2023-07-20T11:16:51;4.03;;;3.63;;
13335;SDS011;6737;51.480;11.962;2023-07-20T11:19:24;3.40;;;2.95;;
13335;SDS011;6737;51.480;11.962;2023-07-20T11:21:52;2.53;;;2.33;;
13335;SDS011;6737;51.480;11.962;2023-07-20T11:24:19;2.47;;;2.13;;
13335;SDS011;6737;51.480;11.962;2023-07-20T11:26:46;2.50;;;2.30;;
13335;SDS011;6737;51.480;11.962;2023-07-20T11:29:17;2.47;;;1.80;;
13335;SDS011;6737;51.480;11.962;2023-07-20T11:31:45;2.40;;;2.20;;
13335;SDS011;6737;51.480;11.962;2023-07-20T11:34:13;2.40;;;1.77;;
13335;SDS011;6737;51.480;11.962;2023-07-20T11:36:41;1.73;;;1.40;;
13335;SDS011;6737;51.480;11.962;2023-07-20T11:39:09;1.65;;;1.55;;
13335;SDS011;6737;51.480;11.962;2023-07-20T11:41:36;2.58;;;1.58;;
13335;SDS011;6737;51.480;11.962;2023-07-20T11:44:04;1.85;;;1.70;;
13335;SDS011;6737;51.480;11.962;2023-07-20T11:46:31;2.08;;;1.67;;
13335;SDS011;6737;51.480;11.962;2023-07-20T11:48:58;1.63;;;1.52;;
13335;SDS011;6737;51.480;11.962;2023-07-20T11:51:29;3.97;;;2.00;;
13335;SDS011;6737;51.480;11.962;2023-07-20T11:53:56;2.63;;;1.80;;
13335;SDS011;6737;51.480;11.962;2023-07-20T11:56:25;1.90;;;1.80;;
13335;SDS011;6737;51.480;11.962;2023-07-20T11:58:55;3.90;;;1.92;;
13335;SDS011;6737;51.480;11.962;2023-07-20T12:01:24;2.30;;;2.10;;
13335;SDS011;6737;51.480;11.962;2023-07-20T12:07:25;3.05;;;2.75;;
13335;SDS011;6737;51.480;11.962;2023-07-20T12:10:08;4.03;;;3.67;;
13335;SDS011;6737;51.480;11.962;2023-07-20T12:12:38;3.95;;;3.40;;
13335;SDS011;6737;51.480;11.962;2023-07-20T12:15:17;3.63;;;3.33;;
13335;SDS011;6737;51.480;11.962;2023-07-20T12:17:46;3.67;;;3.38;;
13335;SDS011;6737;51.480;11.962;2023-07-20T12:22:55;4.88;;;4.47;;
13335;SDS011;6737;51.480;11.962;2023-07-20T12:25:23;3.60;;;3.30;;
13335;SDS011;6737;51.480;11.962;2023-07-20T12:27:59;3.55;;;3.25;;
13335;SDS011;6737;51.480;11.962;2023-07-20T12:30:27;3.40;;;3.20;;
13335;SDS011;6737;51.480;11.962;2023-07-20T12:32:53;3.40;;;3.10;;
13335;SDS011;6737;51.480;11.962;2023-07-20T12:35:19;3.88;;;3.58;;
13335;SDS011;6737;51.480;11.962;2023-07-20T12:37:45;3.50;;;3.20;;
13335;SDS011;6737;51.480;11.962;2023-07-20T12:40:15;3.30;;;3.00;;
13335;SDS011;6737;51.480;11.962;2023-07-20T12:42:42;3.67;;;3.38;;
13335;SDS011;6737;51.480;11.962;2023-07-20T12:45:10;3.97;;;3.67;;
13335;SDS011;6737;51.480;11.962;2023-07-20T12:47:36;4.00;;;3.70;;
13335;SDS011;6737;51.480;11.962;2023-07-20T12:50:02;4.50;;;4.07;;
13335;SDS011;6737;51.480;11.962;2023-07-20T12:52:31;7.28;;;4.18;;
13335;SDS011;6737;51.480;11.962;2023-07-20T12:55:01;4.65;;;4.20;;
13335;SDS011;6737;51.480;11.962;2023-07-20T12:57:27;4.07;;;3.78;;
13335;SDS011;6737;51.480;11.962;2023-07-20T12:59:53;4.53;;;4.15;;
13335;SDS011;6737;51.480;11.962;2023-07-20T13:02:19;4.10;;;3.80;;
13335;SDS011;6737;51.480;11.962;2023-07-20T13:04:45;3.80;;;3.50;;
13335;SDS011;6737;51.480;11.962;2023-07-20T13:07:11;4.20;;;3.90;;
13335;SDS011;6737;51.480;11.962;2023-07-20T13:09:39;3.78;;;3.50;;
13335;SDS011;6737;51.480;11.962;2023-07-20T13:12:05;4.55;;;3.70;;
13335;SDS011;6737;51.480;11.962;2023-07-20T13:14:31;3.72;;;3.42;;
13335;SDS011;6737;51.480;11.962;2023-07-20T13:16:57;3.63;;;3.33;;
13335;SDS011;6737;51.480;11.962;2023-07-20T13:19:23;3.92;;;3.40;;
13335;SDS011;6737;51.480;11.962;2023-07-20T13:21:48;4.28;;;3.88;;
13335;SDS011;6737;51.480;11.962;2023-07-20T13:24:14;4.25;;;3.90;;
13335;SDS011;6737;51.480;11.962;2023-07-20T13:26:40;4.18;;;3.42;;
13335;SDS011;6737;51.480;11.962;2023-07-20T13:29:06;4.72;;;3.42;;
13335;SDS011;6737;51.480;11.962;2023-07-20T13:31:32;3.72;;;3.42;;
13335;SDS011;6737;51.480;11.962;2023-07-20T13:33:58;4.05;;;2.65;;
13335;SDS011;6737;51.480;11.962;2023-07-20T13:36:24;3.05;;;2.67;;
13335;SDS011;6737;51.480;11.962;2023-07-20T13:38:50;2.85;;;2.63;;
13335;SDS011;6737;51.480;11.962;2023-07-20T13:41:15;3.30;;;2.72;;
13335;SDS011;6737;51.480;11.962;2023-07-20T13:43:42;2.83;;;2.60;;
13335;SDS011;6737;51.480;11.962;2023-07-20T13:46:07;2.90;;;2.60;;
13335;SDS011;6737;51.480;11.962;2023-07-20T13:48:33;2.28;;;2.03;;
13335;SDS011;6737;51.480;11.962;2023-07-20T13:50:59;2.33;;;2.00;;
13335;SDS011;6737;51.480;11.962;2023-07-20T13:53:25;2.20;;;2.00;;
13335;SDS011;6737;51.480;11.962;2023-07-20T13:55:52;2.53;;;1.80;;
13335;SDS011;6737;51.480;11.962;2023-07-20T13:58:18;2.65;;;1.80;;
13335;SDS011;6737;51.480;11.962;2023-07-20T14:00:44;1.80;;;1.70;;
13335;SDS011;6737;51.480;11.962;2023-07-20T14:03:10;5.47;;;1.45;;
13335;SDS011;6737;51.480;11.962;2023-07-20T14:05:35;1.90;;;1.40;;
13335;SDS011;6737;51.480;11.962;2023-07-20T14:08:01;1.30;;;1.20;;
13335;SDS011;6737;51.480;11.962;2023-07-20T14:10:27;3.47;;;1.30;;
13335;SDS011;6737;51.480;11.962;2023-07-20T14:12:53;1.55;;;1.20;;
13335;SDS011;6737;51.480;11.962;2023-07-20T14:15:18;2.13;;;1.23;;
13335;SDS011;6737;51.480;11.962;2023-07-20T14:17:45;1.50;;;1.27;;
13335;SDS011;6737;51.480;11.962;2023-07-20T14:20:11;1.10;;;1.00;;
13335;SDS011;6737;51.480;11.962;2023-07-20T14:22:37;1.10;;;1.00;;
13335;SDS011;6737;51.480;11.962;2023-07-20T14:25:03;1.13;;;1.00;;
13335;SDS011;6737;51.480;11.962;2023-07-20T14:27:29;1.70;;;1.10;;
13335;SDS011;6737;51.480;11.962;2023-07-20T14:29:54;1.60;;;1.00;;
13335;SDS011;6737;51.480;11.962;2023-07-20T14:32:21;2.00;;;1.00;;
13335;SDS011;6737;51.480;11.962;2023-07-20T14:34:46;1.67;;;1.10;;
13335;SDS011;6737;51.480;11.962;2023-07-20T14:37:12;1.73;;;1.00;;
13335;SDS011;6737;51.480;11.962;2023-07-20T14:39:38;2.20;;;1.20;;
13335;SDS011;6737;51.480;11.962;2023-07-20T14:42:04;1.05;;;0.90;;
13335;SDS011;6737;51.480;11.962;2023-07-20T14:44:30;1.25;;;0.90;;
13335;SDS011;6737;51.480;11.962;2023-07-20T14:47:03;1.60;;;1.00;;
13335;SDS011;6737;51.480;11.962;2023-07-20T14:49:29;1.42;;;1.00;;
13335;SDS011;6737;51.480;11.962;2023-07-20T14:51:56;1.35;;;1.05;;
13335;SDS011;6737;51.480;11.962;2023-07-20T14:54:22;2.47;;;1.02;;
13335;SDS011;6737;51.480;11.962;2023-07-20T14:56:51;1.10;;;1.00;;
13335;SDS011;6737;51.480;11.962;2023-07-20T14:59:18;1.42;;;0.90;;
13335;SDS011;6737;51.480;11.962;2023-07-20T15:01:44;1.77;;;1.02;;
13335;SDS011;6737;51.480;11.962;2023-07-20T15:04:13;1.60;;;0.98;;
13335;SDS011;6737;51.480;11.962;2023-07-20T15:06:40;2.58;;;1.00;;
13335;SDS011;6737;51.480;11.962;2023-07-20T15:09:06;3.38;;;0.95;;
13335;SDS011;6737;51.480;11.962;2023-07-20T15:11:33;0.95;;;0.90;;
13335;SDS011;6737;51.480;11.962;2023-07-20T15:13:59;2.45;;;0.90;;
13335;SDS011;6737;51.480;11.962;2023-07-20T15:16:25;1.10;;;1.00;;